createdAt,value
2023-01-11T00:07:11.351Z,24.23
2023-01-11T00:14:43.072Z,24.23
2023-01-11T00:22:14.782Z,24.22
2023-01-11T00:29:46.502Z,24.21
2023-01-11T00:37:18.211Z,24.21
2023-01-11T00:45:08.509Z,24.22
2023-01-11T00:52:40.262Z,24.20
2023-01-11T01:00:12.733Z,24.20
2023-01-11T01:07:44.847Z,24.20
2023-01-11T01:15:16.647Z,24.18
2023-01-11T01:22:48.393Z,24.17
2023-01-11T01:30:20.146Z,24.17
2023-01-11T01:37:51.908Z,24.18
2023-01-11T01:45:25.790Z,24.18
2023-01-11T01:53:02.867Z,24.18
2023-01-11T02:00:34.780Z,24.16
2023-01-11T02:08:11.798Z,24.17
2023-01-11T02:15:43.547Z,24.17
2023-01-11T02:23:39.887Z,24.17
2023-01-11T02:31:29.218Z,24.18
2023-01-11T02:39:30.965Z,24.17
2023-01-11T02:47:04.815Z,24.16
2023-01-11T02:54:36.691Z,24.16
2023-01-11T03:02:08.423Z,24.16
2023-01-11T03:09:58.269Z,24.15
2023-01-11T03:17:46.958Z,24.16
2023-01-11T03:25:28.442Z,24.15
2023-01-11T03:33:21.389Z,24.16
2023-01-11T03:41:01.774Z,24.15
2023-01-11T03:49:11.083Z,24.14
2023-01-11T03:57:07.481Z,24.14
2023-01-11T04:04:39.262Z,24.14
2023-01-11T04:12:11.025Z,24.14
2023-01-11T04:19:42.818Z,24.15
2023-01-11T04:27:14.611Z,24.14
2023-01-11T04:34:46.356Z,24.14
2023-01-11T04:42:18.269Z,24.15
2023-01-11T04:49:50.165Z,24.18
2023-01-11T04:57:25.361Z,24.17
2023-01-11T05:04:57.151Z,24.16
2023-01-11T05:12:28.934Z,24.12
2023-01-11T05:20:00.680Z,24.05
2023-01-11T05:35:04.006Z,24.10
2023-01-11T05:42:35.778Z,24.12
2023-01-11T05:50:08.202Z,24.13
2023-01-11T05:57:46.797Z,24.11
2023-01-11T06:05:18.601Z,24.10
2023-01-11T06:13:13.251Z,24.10
2023-01-11T06:20:49.815Z,24.11
2023-01-11T06:28:21.695Z,24.10
2023-01-11T06:35:53.607Z,24.11
2023-01-11T06:43:25.485Z,24.12
2023-01-11T06:50:58.249Z,24.13
2023-01-11T06:58:30.064Z,24.12
2023-01-11T07:06:01.986Z,24.11
2023-01-11T07:13:33.802Z,24.12
2023-01-11T07:21:05.718Z,24.14
2023-01-11T07:28:37.457Z,24.14
2023-01-11T07:36:09.389Z,24.13
2023-01-11T07:43:41.129Z,24.13
2023-01-11T07:51:13.424Z,24.14
2023-01-11T07:58:45.275Z,24.14
2023-01-11T08:06:17.264Z,24.14
2023-01-11T08:14:07.844Z,24.15
2023-01-11T08:21:39.672Z,24.13
2023-01-11T08:29:11.451Z,24.14
2023-01-11T08:36:43.188Z,24.14
2023-01-11T08:44:22.314Z,24.16
2023-01-11T08:52:05.068Z,24.16
2023-01-11T08:59:36.853Z,24.17
2023-01-11T09:07:08.701Z,24.17
2023-01-11T09:14:41.435Z,24.16
2023-01-11T09:22:13.202Z,24.16
2023-01-11T09:29:46.095Z,24.15
2023-01-11T09:37:18.070Z,24.15
2023-01-11T09:44:58.123Z,24.15
2023-01-11T09:52:36.248Z,24.15
2023-01-11T10:00:48.773Z,24.16
2023-01-11T10:18:38.447Z,24.16
2023-01-11T10:24:58.708Z,24.16
2023-01-11T10:41:04.618Z,23.99
2023-01-11T10:48:44.341Z,24.05
2023-01-11T10:56:42.536Z,24.10
2023-01-11T11:04:45.912Z,24.11
2023-01-11T11:12:25.970Z,24.11
2023-01-11T11:19:57.784Z,24.12
2023-01-11T11:27:33.145Z,24.11
2023-01-11T11:35:07.742Z,24.15
2023-01-11T11:42:39.502Z,24.15
2023-01-11T11:50:41.904Z,24.16
2023-01-11T11:58:13.111Z,24.16
2023-01-11T12:05:58.500Z,24.17
2023-01-11T12:13:32.284Z,24.14
2023-01-11T12:21:20.597Z,24.16
2023-01-11T12:30:05.167Z,24.16
2023-01-11T12:38:15.104Z,24.17
2023-01-11T12:46:16.520Z,24.16
2023-01-11T12:54:35.459Z,24.20
2023-01-11T13:02:07.094Z,24.23
2023-01-11T13:10:18.948Z,24.29
2023-01-11T13:17:58.942Z,24.30
2023-01-11T13:25:33.637Z,24.31
2023-01-11T13:33:12.281Z,24.31
2023-01-11T13:40:49.787Z,24.31
2023-01-11T13:48:32.261Z,24.32
2023-01-11T13:56:30.944Z,24.33
2023-01-11T14:04:16.849Z,24.33
2023-01-11T14:12:17.020Z,24.34
2023-01-11T14:20:03.252Z,24.32
2023-01-11T14:27:40.945Z,24.33
2023-01-11T14:35:36.962Z,24.33
2023-01-11T14:43:46.333Z,24.31
2023-01-11T14:51:32.504Z,24.30
2023-01-11T14:59:07.099Z,24.31
2023-01-11T15:06:53.428Z,24.30
2023-01-11T15:14:30.130Z,24.30
2023-01-11T15:22:03.479Z,24.34
2023-01-11T15:29:42.268Z,24.32
2023-01-11T15:38:06.992Z,24.32
2023-01-11T15:46:03.711Z,24.31
2023-01-11T15:54:05.032Z,24.30
2023-01-11T16:02:14.027Z,24.31
2023-01-11T16:10:03.764Z,24.29
2023-01-11T16:17:38.326Z,24.28
2023-01-11T16:25:11.833Z,24.30
2023-01-11T16:32:43.615Z,24.29
2023-01-11T16:40:19.460Z,24.29
2023-01-11T16:48:12.566Z,24.29
2023-01-11T16:56:14.905Z,24.30
2023-01-11T17:03:51.924Z,24.30
2023-01-11T17:11:42.270Z,24.28
2023-01-11T17:19:21.996Z,24.27
2023-01-11T17:27:01.889Z,24.28
2023-01-11T17:34:37.755Z,24.27
2023-01-11T17:42:30.496Z,24.26
2023-01-11T17:50:03.124Z,24.26
2023-01-11T17:57:34.933Z,24.25
2023-01-11T18:05:07.023Z,24.25
2023-01-11T18:12:40.268Z,24.26
2023-01-11T18:20:15.124Z,24.26
2023-01-11T18:27:46.959Z,24.25
2023-01-11T18:35:19.423Z,24.25
2023-01-11T18:42:52.860Z,24.25
2023-01-11T18:50:24.632Z,24.26
2023-01-11T18:57:58.310Z,24.25
2023-01-11T19:05:30.192Z,24.26
2023-01-11T19:13:01.990Z,24.24
2023-01-11T19:20:33.853Z,24.23
2023-01-11T19:28:05.906Z,24.22
2023-01-11T19:35:40.963Z,24.23
2023-01-11T19:43:14.444Z,24.24
2023-01-11T19:50:46.301Z,24.23
2023-01-11T19:58:18.018Z,24.22
2023-01-11T20:05:49.853Z,24.24
2023-01-11T20:13:21.856Z,24.16
2023-01-11T20:20:56.852Z,24.09
2023-01-11T20:28:28.627Z,24.10
2023-01-11T20:36:00.480Z,24.14
2023-01-11T20:43:33.080Z,24.16
2023-01-11T20:51:05.094Z,24.17
2023-01-11T20:58:36.927Z,24.19
2023-01-11T21:06:09.428Z,24.20
2023-01-11T21:13:41.175Z,24.20
2023-01-11T21:21:15.097Z,24.22
2023-01-11T21:28:51.588Z,24.23
2023-01-11T21:36:24.234Z,24.23
2023-01-11T21:43:55.989Z,24.25
2023-01-11T21:51:29.698Z,24.25
2023-01-11T21:59:01.636Z,24.25
2023-01-11T22:06:41.457Z,24.28
2023-01-11T22:14:13.288Z,24.30
2023-01-11T22:21:45.037Z,24.28
2023-01-11T22:29:16.888Z,24.29
2023-01-11T22:36:48.818Z,24.29
2023-01-11T22:44:20.548Z,24.27
2023-01-11T22:51:52.322Z,24.28
2023-01-11T22:59:24.178Z,24.27
2023-01-11T23:06:57.137Z,24.28
2023-01-11T23:14:30.163Z,24.29
2023-01-11T23:22:02.299Z,24.28
2023-01-11T23:29:35.435Z,24.28
2023-01-11T23:37:08.248Z,24.28
2023-01-11T23:44:40.031Z,24.28
2023-01-11T23:52:11.880Z,24.28
2023-01-11T23:59:43.853Z,24.25
